createdAt,value
2022-07-29T00:00:19.510Z,1.33
2022-07-29T00:02:21.189Z,0.85
2022-07-29T00:04:22.840Z,1.13
2022-07-29T00:06:24.418Z,0.70
2022-07-29T00:08:25.921Z,0.88
2022-07-29T00:10:27.436Z,0.93
2022-07-29T00:12:29.011Z,0.82
2022-07-29T00:14:31.346Z,0.90
2022-07-29T00:16:32.911Z,0.88
2022-07-29T00:18:34.472Z,1.00
2022-07-29T00:20:35.975Z,1.10
2022-07-29T00:22:40.815Z,1.00
2022-07-29T00:24:42.331Z,0.80
2022-07-29T00:26:43.838Z,1.13
2022-07-29T00:28:45.343Z,0.70
2022-07-29T00:30:46.894Z,0.98
2022-07-29T00:32:48.431Z,1.00
2022-07-29T00:35:08.233Z,0.82
2022-07-29T00:37:09.734Z,0.90
2022-07-29T00:39:11.279Z,1.05
2022-07-29T00:41:13.102Z,1.45
2022-07-29T00:43:15.767Z,1.05
2022-07-29T00:45:18.576Z,1.00
2022-07-29T00:47:20.073Z,1.00
2022-07-29T00:49:21.733Z,0.90
2022-07-29T00:51:23.398Z,1.02
2022-07-29T00:53:26.225Z,1.10
2022-07-29T00:55:29.898Z,1.10
2022-07-29T00:57:31.499Z,0.90
2022-07-29T00:59:34.658Z,1.00
2022-07-29T01:01:37.268Z,0.82
2022-07-29T01:03:38.822Z,0.93
2022-07-29T01:05:50.055Z,1.83
2022-07-29T01:07:55.274Z,1.10
2022-07-29T01:09:58.098Z,0.80
2022-07-29T01:12:00.160Z,0.80
2022-07-29T01:14:02.849Z,1.05
2022-07-29T01:16:11.638Z,1.33
2022-07-29T01:18:22.127Z,1.05
2022-07-29T01:20:31.318Z,1.00
2022-07-29T01:22:39.922Z,1.23
2022-07-29T01:25:04.184Z,1.08
2022-07-29T01:27:11.294Z,1.40
2022-07-29T01:29:46.234Z,0.98
2022-07-29T01:32:04.779Z,1.00
2022-07-29T01:34:08.986Z,0.90
2022-07-29T01:36:18.381Z,1.00
2022-07-29T01:38:24.222Z,0.90
2022-07-29T01:40:34.168Z,1.30
2022-07-29T01:42:49.480Z,0.93
2022-07-29T01:45:10.367Z,1.00
2022-07-29T01:47:16.611Z,1.17
2022-07-29T01:49:23.785Z,1.10
2022-07-29T01:51:32.528Z,0.90
2022-07-29T01:55:45.400Z,0.98
2022-07-29T01:57:49.174Z,1.27
2022-07-29T01:59:52.005Z,0.82
2022-07-29T02:01:55.181Z,1.00
2022-07-29T02:03:58.298Z,1.00
2022-07-29T02:06:02.688Z,1.17
2022-07-29T02:08:06.596Z,0.80
2022-07-29T02:10:09.870Z,1.27
2022-07-29T02:12:12.716Z,0.90
2022-07-29T02:14:17.016Z,0.88
2022-07-29T02:16:22.045Z,0.95
2022-07-29T02:18:26.462Z,0.93
2022-07-29T02:20:29.986Z,0.88
2022-07-29T02:22:34.451Z,1.25
2022-07-29T02:24:38.686Z,1.08
2022-07-29T02:26:44.031Z,1.30
2022-07-29T02:28:47.280Z,1.02
2022-07-29T02:30:52.085Z,1.10
2022-07-29T02:32:54.672Z,0.73
2022-07-29T02:34:57.653Z,0.95
2022-07-29T02:36:59.971Z,1.00
2022-07-29T02:39:03.115Z,0.90
2022-07-29T02:41:09.597Z,1.02
2022-07-29T02:43:11.863Z,1.02
2022-07-29T02:45:13.491Z,1.10
2022-07-29T02:47:21.803Z,1.20
2022-07-29T02:49:39.665Z,1.27
2022-07-29T02:51:47.164Z,0.90
2022-07-29T02:53:52.271Z,1.00
2022-07-29T02:56:03.014Z,1.25
2022-07-29T02:58:30.605Z,1.00
2022-07-29T03:00:36.586Z,0.95
2022-07-29T03:02:42.646Z,0.95
2022-07-29T03:04:45.554Z,0.75
2022-07-29T03:06:47.897Z,1.00
2022-07-29T03:08:50.990Z,0.82
2022-07-29T03:10:53.873Z,0.93
2022-07-29T03:12:56.746Z,1.00
2022-07-29T03:15:00.168Z,0.80
2022-07-29T03:17:01.930Z,1.10
2022-07-29T03:19:05.645Z,0.88
2022-07-29T03:21:07.228Z,0.82
2022-07-29T03:23:12.056Z,0.88
2022-07-29T03:25:15.292Z,0.93
2022-07-29T03:27:16.926Z,0.90
2022-07-29T03:29:18.397Z,1.02
2022-07-29T03:31:21.583Z,1.10
2022-07-29T03:33:23.281Z,0.95
2022-07-29T03:35:25.633Z,1.00
2022-07-29T03:37:27.428Z,1.30
2022-07-29T03:39:32.375Z,0.90
2022-07-29T03:41:34.885Z,1.20
2022-07-29T03:43:39.264Z,1.08
2022-07-29T03:45:54.495Z,1.08
2022-07-29T03:48:00.989Z,1.17
2022-07-29T03:50:07.588Z,1.10
2022-07-29T03:52:12.433Z,1.23
2022-07-29T03:54:14.452Z,1.05
2022-07-29T03:56:21.884Z,1.20
2022-07-29T03:58:27.205Z,1.85
2022-07-29T04:00:29.636Z,0.98
2022-07-29T04:02:32.598Z,0.93
2022-07-29T04:04:35.641Z,1.30
2022-07-29T04:06:44.666Z,1.08
2022-07-29T04:08:47.338Z,1.67
2022-07-29T04:10:49.080Z,0.80
2022-07-29T04:12:51.054Z,1.15
2022-07-29T04:14:52.637Z,1.00
2022-07-29T04:16:54.139Z,1.20
2022-07-29T04:18:55.670Z,1.00
2022-07-29T04:20:57.196Z,0.90
2022-07-29T04:22:58.678Z,1.10
2022-07-29T04:25:03.923Z,0.80
2022-07-29T04:27:05.848Z,1.00
2022-07-29T04:29:07.466Z,1.00
2022-07-29T04:31:09.072Z,1.10
2022-07-29T04:33:10.646Z,0.85
2022-07-29T04:35:12.156Z,1.00
2022-07-29T04:37:13.782Z,1.30
2022-07-29T04:39:20.687Z,1.15
2022-07-29T04:41:30.853Z,0.98
2022-07-29T04:43:38.547Z,1.20
2022-07-29T04:45:40.525Z,1.38
2022-07-29T04:47:41.996Z,1.02
2022-07-29T04:49:43.515Z,1.25
2022-07-29T04:51:45.021Z,1.08
2022-07-29T04:53:46.679Z,1.63
2022-07-29T04:55:48.250Z,1.20
2022-07-29T04:57:49.739Z,1.20
2022-07-29T04:59:51.267Z,1.30
2022-07-29T05:01:52.857Z,1.17
2022-07-29T05:03:59.864Z,1.20
2022-07-29T05:06:02.035Z,1.15
2022-07-29T05:08:03.735Z,1.45
2022-07-29T05:10:05.889Z,1.40
2022-07-29T05:12:07.744Z,1.27
2022-07-29T05:14:09.328Z,1.38
2022-07-29T05:16:11.171Z,1.33
2022-07-29T05:18:12.851Z,1.20
2022-07-29T05:20:14.401Z,1.38
2022-07-29T05:22:16.001Z,1.13
2022-07-29T05:24:19.288Z,1.20
2022-07-29T05:26:21.138Z,1.52
2022-07-29T05:28:22.685Z,1.70
2022-07-29T05:30:24.464Z,1.40
2022-07-29T05:32:25.990Z,1.63
2022-07-29T05:34:27.816Z,1.27
2022-07-29T05:36:29.383Z,1.55
2022-07-29T05:38:30.882Z,1.55
2022-07-29T05:40:33.359Z,1.20
2022-07-29T05:42:35.037Z,1.70
2022-07-29T05:44:40.329Z,1.40
2022-07-29T05:46:41.974Z,1.40
2022-07-29T05:48:43.539Z,1.52
2022-07-29T05:50:45.084Z,1.20
2022-07-29T05:52:46.568Z,1.70
2022-07-29T05:54:48.254Z,1.50
2022-07-29T05:56:49.745Z,1.60
2022-07-29T05:58:52.072Z,1.40
2022-07-29T06:00:54.010Z,1.75
2022-07-29T06:02:55.672Z,1.70
2022-07-29T06:04:57.183Z,1.48
2022-07-29T06:06:58.818Z,1.42
2022-07-29T06:09:00.952Z,1.60
2022-07-29T06:11:14.464Z,1.50
2022-07-29T06:13:17.023Z,2.00
2022-07-29T06:15:18.839Z,1.60
2022-07-29T06:17:20.318Z,1.92
2022-07-29T06:19:22.046Z,2.03
2022-07-29T06:21:23.823Z,2.25
2022-07-29T06:23:25.301Z,3.03
2022-07-29T06:25:27.444Z,2.17
2022-07-29T06:27:28.998Z,1.90
2022-07-29T06:29:30.646Z,2.15
2022-07-29T06:31:32.222Z,2.47
2022-07-29T06:33:34.412Z,1.70
2022-07-29T06:35:39.262Z,1.70
2022-07-29T06:37:43.690Z,1.83
2022-07-29T06:39:47.433Z,1.77
2022-07-29T06:41:52.372Z,1.70
2022-07-29T06:43:55.218Z,1.52
2022-07-29T06:46:02.787Z,1.67
2022-07-29T06:48:04.679Z,1.38
2022-07-29T06:50:07.802Z,1.42
2022-07-29T06:52:09.345Z,1.73
2022-07-29T06:54:10.904Z,1.15
2022-07-29T06:56:14.858Z,1.20
2022-07-29T06:58:18.814Z,1.50
2022-07-29T07:00:20.319Z,1.50
2022-07-29T07:02:21.869Z,1.75
2022-07-29T07:04:23.374Z,1.58
2022-07-29T07:06:24.944Z,1.65
2022-07-29T07:08:26.716Z,1.52
2022-07-29T07:10:28.543Z,1.30
2022-07-29T07:12:30.065Z,1.50
2022-07-29T07:14:31.630Z,1.75
2022-07-29T07:16:33.690Z,1.70
2022-07-29T07:18:35.350Z,1.25
2022-07-29T07:20:37.574Z,1.75
2022-07-29T07:22:39.164Z,1.33
2022-07-29T07:24:40.656Z,1.55
2022-07-29T07:26:42.633Z,1.58
2022-07-29T07:28:44.221Z,1.55
2022-07-29T07:30:46.745Z,1.60
2022-07-29T07:32:48.244Z,1.98
2022-07-29T07:34:49.826Z,1.58
2022-07-29T07:36:51.323Z,1.52
2022-07-29T07:38:52.824Z,1.75
2022-07-29T07:40:54.337Z,2.35
2022-07-29T07:42:55.868Z,1.80
2022-07-29T07:45:12.700Z,1.92
2022-07-29T07:47:16.649Z,1.63
2022-07-29T07:49:19.868Z,1.63
2022-07-29T07:51:21.421Z,1.58
2022-07-29T07:53:23.084Z,1.60
2022-07-29T07:55:25.245Z,1.38
2022-07-29T07:57:26.816Z,1.90
2022-07-29T07:59:28.290Z,1.50
2022-07-29T08:01:29.892Z,1.52
2022-07-29T08:03:50.832Z,1.52
2022-07-29T08:05:52.880Z,1.75
2022-07-29T08:07:54.505Z,1.75
2022-07-29T08:09:55.986Z,1.95
2022-07-29T08:11:59.656Z,1.63
2022-07-29T08:14:02.330Z,1.75
2022-07-29T08:16:12.678Z,1.70
2022-07-29T08:18:14.597Z,2.03
2022-07-29T08:20:16.097Z,1.77
2022-07-29T08:22:17.637Z,1.65
2022-07-29T08:24:37.707Z,1.38
2022-07-29T08:26:39.205Z,1.65
2022-07-29T08:28:45.694Z,1.40
2022-07-29T08:30:47.244Z,1.35
2022-07-29T08:32:54.198Z,1.33
2022-07-29T08:34:56.522Z,1.43
2022-07-29T08:36:58.074Z,1.63
2022-07-29T08:39:00.423Z,1.40
2022-07-29T08:41:02.325Z,1.08
2022-07-29T08:43:09.281Z,1.58
2022-07-29T08:45:11.213Z,1.20
2022-07-29T08:47:15.578Z,1.23
2022-07-29T08:49:18.384Z,1.50
2022-07-29T08:51:21.957Z,1.40
2022-07-29T08:53:27.614Z,2.00
2022-07-29T08:55:29.174Z,2.00
2022-07-29T08:57:31.760Z,1.58
2022-07-29T08:59:35.541Z,1.70
2022-07-29T09:01:42.714Z,1.23
2022-07-29T09:03:47.585Z,1.50
2022-07-29T09:05:49.999Z,1.40
2022-07-29T09:07:52.092Z,1.45
2022-07-29T09:09:53.929Z,1.40
2022-07-29T09:11:57.784Z,1.20
2022-07-29T09:13:59.501Z,1.27
2022-07-29T09:16:04.564Z,1.40
2022-07-29T09:18:08.596Z,1.70
2022-07-29T09:20:24.162Z,1.80
2022-07-29T09:22:32.887Z,1.38
2022-07-29T09:24:45.444Z,1.15
2022-07-29T09:26:47.278Z,1.20
2022-07-29T09:28:48.785Z,1.30
2022-07-29T09:30:55.724Z,1.40
2022-07-29T09:33:03.706Z,1.60
2022-07-29T09:35:23.879Z,1.42
2022-07-29T09:37:29.925Z,1.48
2022-07-29T09:39:46.540Z,1.75
2022-07-29T09:41:54.108Z,1.50
2022-07-29T09:44:00.318Z,1.40
2022-07-29T09:46:14.792Z,1.40
2022-07-29T09:48:24.689Z,1.38
2022-07-29T09:50:45.094Z,1.50
2022-07-29T09:52:51.337Z,1.30
2022-07-29T09:54:54.917Z,1.30
2022-07-29T09:56:56.846Z,1.42
2022-07-29T09:59:09.448Z,1.67
2022-07-29T10:01:11.115Z,1.10
2022-07-29T10:03:14.059Z,1.15
2022-07-29T10:05:21.427Z,1.10
2022-07-29T10:07:23.189Z,1.25
2022-07-29T10:09:25.523Z,1.20
2022-07-29T10:11:27.075Z,1.48
2022-07-29T10:13:49.599Z,1.23
2022-07-29T10:15:52.303Z,1.35
2022-07-29T10:17:55.879Z,1.13
2022-07-29T10:19:57.917Z,1.02
2022-07-29T10:22:01.414Z,1.02
2022-07-29T10:24:03.406Z,1.08
2022-07-29T10:26:05.462Z,1.40
2022-07-29T10:28:07.136Z,1.17
2022-07-29T10:30:09.658Z,0.95
2022-07-29T10:32:35.090Z,1.52
2022-07-29T10:35:10.820Z,1.35
2022-07-29T10:37:39.402Z,1.38
2022-07-29T10:39:53.350Z,1.15
2022-07-29T10:42:07.094Z,1.35
2022-07-29T10:44:19.341Z,0.95
2022-07-29T10:46:25.551Z,1.65
2022-07-29T10:48:27.447Z,1.20
2022-07-29T10:50:29.056Z,1.20
2022-07-29T10:53:08.935Z,0.98
2022-07-29T10:55:37.588Z,1.20
2022-07-29T10:57:53.692Z,1.10
2022-07-29T11:00:17.216Z,1.02
2022-07-29T11:02:43.844Z,1.10
2022-07-29T11:04:46.912Z,0.95
2022-07-29T11:07:03.870Z,1.27
2022-07-29T11:09:19.940Z,0.90
2022-07-29T11:11:44.049Z,1.77
2022-07-29T11:13:59.771Z,1.08
2022-07-29T11:16:01.357Z,1.27
2022-07-29T11:18:02.855Z,1.27
2022-07-29T11:20:33.507Z,1.20
2022-07-29T11:22:36.716Z,1.05
2022-07-29T11:24:38.792Z,1.25
2022-07-29T11:27:10.009Z,1.10
2022-07-29T11:29:23.117Z,1.10
2022-07-29T11:31:45.071Z,1.20
2022-07-29T11:33:55.965Z,1.13
2022-07-29T11:36:11.266Z,1.55
2022-07-29T11:38:32.121Z,1.30
2022-07-29T11:40:34.007Z,0.90
2022-07-29T11:42:35.440Z,1.48
2022-07-29T11:45:43.824Z,2.58
2022-07-29T11:47:36.988Z,1.15
2022-07-29T11:49:48.179Z,0.90
2022-07-29T11:51:58.783Z,1.08
2022-07-29T11:54:05.172Z,1.35
2022-07-29T11:56:10.341Z,1.13
2022-07-29T11:58:13.148Z,0.93
2022-07-29T12:00:39.394Z,0.95
2022-07-29T12:02:48.524Z,1.40
2022-07-29T12:04:58.177Z,0.90
2022-07-29T12:07:00.534Z,0.80
2022-07-29T12:09:08.499Z,0.95
2022-07-29T12:11:21.639Z,0.90
2022-07-29T12:13:37.194Z,0.82
2022-07-29T12:15:47.050Z,0.80
2022-07-29T12:17:49.198Z,1.08
2022-07-29T12:19:50.909Z,0.90
2022-07-29T12:21:56.877Z,0.95
2022-07-29T12:24:08.928Z,1.27
2022-07-29T12:26:25.376Z,0.95
2022-07-29T12:28:28.198Z,1.50
2022-07-29T12:30:51.638Z,1.00
2022-07-29T12:32:53.626Z,1.13
2022-07-29T12:34:55.228Z,1.08
2022-07-29T12:36:56.910Z,0.90
2022-07-29T12:38:58.520Z,1.05
2022-07-29T12:41:00.218Z,1.00
2022-07-29T12:43:13.781Z,1.08
2022-07-29T12:45:17.508Z,0.82
2022-07-29T12:47:20.559Z,0.75
2022-07-29T12:49:23.942Z,1.17
2022-07-29T12:51:33.775Z,0.90
2022-07-29T12:53:36.785Z,0.90
2022-07-29T12:55:52.272Z,0.90
2022-07-29T12:57:54.334Z,1.27
2022-07-29T13:00:14.740Z,1.13
2022-07-29T13:02:25.625Z,1.80
2022-07-29T13:04:29.400Z,0.82
2022-07-29T13:06:45.980Z,1.63
2022-07-29T13:09:00.966Z,0.75
2022-07-29T13:11:02.516Z,1.45
2022-07-29T13:13:10.540Z,1.42
2022-07-29T13:15:16.125Z,1.10
2022-07-29T13:17:23.969Z,1.10
2022-07-29T13:19:35.214Z,0.98
2022-07-29T13:21:38.574Z,0.98
2022-07-29T13:23:40.152Z,0.80
2022-07-29T13:25:41.737Z,0.88
2022-07-29T13:27:45.513Z,0.70
2022-07-29T13:29:47.456Z,0.98
2022-07-29T13:31:48.998Z,0.80
2022-07-29T13:33:50.530Z,1.00
2022-07-29T13:35:54.554Z,0.93
2022-07-29T13:37:56.162Z,1.50
2022-07-29T13:39:58.277Z,1.27
2022-07-29T13:42:00.503Z,1.27
2022-07-29T13:44:02.329Z,1.13
2022-07-29T13:46:03.955Z,1.38
2022-07-29T13:48:07.241Z,0.95
2022-07-29T13:50:10.881Z,1.15
2022-07-29T13:52:12.484Z,1.33
2022-07-29T13:54:14.537Z,1.13
2022-07-29T13:56:16.135Z,0.80
2022-07-29T13:58:17.639Z,1.10
2022-07-29T14:00:20.138Z,1.27
2022-07-29T14:02:25.791Z,1.15
2022-07-29T14:04:27.860Z,0.95
2022-07-29T14:06:29.582Z,1.17
2022-07-29T14:08:31.467Z,1.10
2022-07-29T14:10:33.000Z,0.90
2022-07-29T14:12:34.670Z,1.13
2022-07-29T14:14:37.465Z,1.10
2022-07-29T14:16:43.119Z,1.10
2022-07-29T14:18:49.205Z,1.00
2022-07-29T14:20:52.014Z,0.88
2022-07-29T14:22:53.513Z,1.08
2022-07-29T14:24:56.287Z,1.10
2022-07-29T14:26:57.851Z,0.95
2022-07-29T14:28:59.433Z,1.35
2022-07-29T14:31:01.025Z,1.05
2022-07-29T14:33:03.082Z,1.20
2022-07-29T14:35:05.873Z,1.85
2022-07-29T14:37:08.016Z,1.02
2022-07-29T14:39:09.771Z,1.15
2022-07-29T14:41:11.305Z,1.50
2022-07-29T14:43:13.003Z,1.38
2022-07-29T14:45:15.089Z,1.08
2022-07-29T14:47:16.576Z,1.10
2022-07-29T14:49:18.112Z,1.20
2022-07-29T14:51:19.677Z,0.88
2022-07-29T14:53:21.206Z,1.10
2022-07-29T14:55:22.735Z,1.08
2022-07-29T14:57:24.293Z,1.20
2022-07-29T14:59:26.858Z,1.35
2022-07-29T15:01:28.549Z,1.00
2022-07-29T15:03:30.236Z,1.33
2022-07-29T15:05:35.924Z,0.95
2022-07-29T15:07:37.467Z,0.98
2022-07-29T15:09:40.380Z,0.93
2022-07-29T15:11:51.605Z,1.33
2022-07-29T15:13:53.209Z,1.33
2022-07-29T15:15:59.715Z,1.30
2022-07-29T15:18:01.642Z,1.50
2022-07-29T15:20:04.078Z,1.65
2022-07-29T15:22:06.398Z,1.27
2022-07-29T15:24:08.231Z,1.00
2022-07-29T15:26:09.701Z,1.23
2022-07-29T15:28:11.281Z,1.70
2022-07-29T15:30:31.603Z,1.05
2022-07-29T15:32:34.596Z,1.27
2022-07-29T15:34:36.629Z,1.40
2022-07-29T15:36:53.996Z,1.48
2022-07-29T15:38:56.051Z,1.08
2022-07-29T15:40:57.653Z,1.95
2022-07-29T15:43:01.821Z,1.52
2022-07-29T15:45:04.398Z,1.73
2022-07-29T15:47:09.023Z,1.20
2022-07-29T15:49:10.708Z,1.70
2022-07-29T15:51:12.255Z,1.30
2022-07-29T15:53:13.759Z,1.38
2022-07-29T15:55:16.354Z,1.38
2022-07-29T15:57:17.862Z,1.48
2022-07-29T15:59:22.322Z,1.30
2022-07-29T16:01:25.061Z,1.27
2022-07-29T16:03:26.677Z,1.48
2022-07-29T16:05:29.621Z,1.10
2022-07-29T16:07:31.314Z,1.40
2022-07-29T16:09:34.269Z,1.50
2022-07-29T16:11:35.981Z,1.50
2022-07-29T16:13:37.496Z,1.23
2022-07-29T16:15:38.997Z,1.52
2022-07-29T16:17:40.488Z,1.05
2022-07-29T16:19:43.349Z,1.40
2022-07-29T16:21:44.936Z,1.10
2022-07-29T16:23:46.535Z,1.58
2022-07-29T16:25:59.600Z,2.10
2022-07-29T16:28:02.577Z,2.65
2022-07-29T16:30:04.701Z,1.85
2022-07-29T16:32:06.777Z,1.17
2022-07-29T16:34:08.325Z,1.38
2022-07-29T16:36:09.870Z,1.08
2022-07-29T16:38:14.740Z,1.55
2022-07-29T16:40:16.247Z,1.48
2022-07-29T16:42:36.924Z,1.20
2022-07-29T16:44:39.299Z,1.20
2022-07-29T16:46:44.157Z,1.30
2022-07-29T16:48:46.208Z,1.30
2022-07-29T16:50:47.823Z,1.27
2022-07-29T16:52:49.977Z,1.48
2022-07-29T16:54:51.737Z,1.67
2022-07-29T16:56:53.244Z,1.10
2022-07-29T16:58:57.212Z,1.60
2022-07-29T17:01:00.013Z,1.45
2022-07-29T17:03:01.530Z,1.63
2022-07-29T17:05:03.155Z,1.42
2022-07-29T17:07:04.725Z,1.50
2022-07-29T17:09:08.637Z,1.90
2022-07-29T17:11:10.128Z,1.42
2022-07-29T17:13:11.623Z,1.50
2022-07-29T17:15:13.413Z,1.33
2022-07-29T17:17:16.707Z,1.60
2022-07-29T17:19:22.924Z,1.35
2022-07-29T17:21:25.154Z,1.65
2022-07-29T17:23:26.648Z,1.40
2022-07-29T17:25:28.328Z,1.10
2022-07-29T17:27:29.985Z,1.30
2022-07-29T17:29:31.537Z,1.20
2022-07-29T17:31:33.048Z,1.40
2022-07-29T17:33:35.110Z,1.30
2022-07-29T17:35:55.065Z,1.50
2022-07-29T17:37:56.692Z,1.73
2022-07-29T17:40:00.399Z,1.13
2022-07-29T17:42:05.599Z,1.45
2022-07-29T17:44:09.379Z,0.90
2022-07-29T17:46:11.384Z,1.50
2022-07-29T17:48:12.985Z,1.20
2022-07-29T17:50:14.553Z,1.27
2022-07-29T17:52:18.305Z,1.42
2022-07-29T17:54:20.142Z,1.20
2022-07-29T17:56:22.174Z,1.50
2022-07-29T17:58:24.326Z,1.20
2022-07-29T18:00:26.368Z,1.10
2022-07-29T18:02:28.407Z,1.50
2022-07-29T18:04:31.357Z,1.13
2022-07-29T18:06:32.850Z,1.42
2022-07-29T18:08:34.986Z,1.27
2022-07-29T18:10:37.276Z,1.35
2022-07-29T18:12:38.763Z,1.50
2022-07-29T18:14:40.337Z,1.40
2022-07-29T18:16:41.915Z,1.52
2022-07-29T18:18:46.518Z,1.60
2022-07-29T18:20:48.369Z,1.40
2022-07-29T18:22:49.887Z,1.38
2022-07-29T18:24:51.685Z,1.20
2022-07-29T18:26:53.965Z,1.70
2022-07-29T18:28:55.485Z,1.75
2022-07-29T18:30:57.895Z,1.30
2022-07-29T18:33:20.313Z,1.40
2022-07-29T18:35:21.187Z,1.30
2022-07-29T18:38:02.109Z,1.75
2022-07-29T18:39:44.297Z,1.30
2022-07-29T18:41:49.934Z,1.60
2022-07-29T18:43:52.323Z,1.33
2022-07-29T18:45:56.091Z,2.20
2022-07-29T18:47:58.720Z,1.77
2022-07-29T18:50:00.250Z,1.73
2022-07-29T18:52:01.936Z,1.98
2022-07-29T18:54:03.612Z,2.10
2022-07-29T18:56:05.151Z,1.60
2022-07-29T18:58:06.769Z,1.95
2022-07-29T19:00:08.988Z,2.05
2022-07-29T19:02:16.538Z,1.55
2022-07-29T19:04:18.824Z,1.50
2022-07-29T19:06:24.053Z,1.60
2022-07-29T19:08:27.241Z,1.70
2022-07-29T19:10:29.525Z,1.67
2022-07-29T19:12:31.168Z,1.80
2022-07-29T19:14:32.727Z,1.50
2022-07-29T19:16:34.441Z,2.00
2022-07-29T19:18:35.957Z,1.60
2022-07-29T19:20:38.398Z,1.58
2022-07-29T19:22:39.930Z,1.50
2022-07-29T19:24:41.435Z,1.00
2022-07-29T19:26:46.850Z,1.60
2022-07-29T19:28:48.768Z,1.63
2022-07-29T19:30:51.644Z,1.92
2022-07-29T19:32:53.265Z,1.85
2022-07-29T19:35:13.119Z,1.50
2022-07-29T19:37:14.633Z,1.70
2022-07-29T19:39:16.111Z,1.35
2022-07-29T19:41:17.632Z,2.28
2022-07-29T19:43:50.504Z,1.50
2022-07-29T19:45:40.942Z,1.85
2022-07-29T19:47:42.432Z,1.83
2022-07-29T19:49:43.929Z,1.45
2022-07-29T19:51:45.426Z,1.63
2022-07-29T19:53:46.986Z,1.33
2022-07-29T19:55:48.545Z,1.60
2022-07-29T19:57:50.887Z,1.60
2022-07-29T19:59:52.888Z,1.27
2022-07-29T20:01:54.449Z,1.65
2022-07-29T20:03:55.956Z,1.73
2022-07-29T20:05:57.645Z,1.70
2022-07-29T20:07:59.290Z,1.48
2022-07-29T20:10:00.898Z,1.73
2022-07-29T20:12:04.443Z,1.70
2022-07-29T20:14:05.985Z,1.60
2022-07-29T20:16:08.785Z,1.75
2022-07-29T20:18:10.318Z,1.90
2022-07-29T20:20:12.016Z,1.50
2022-07-29T20:22:14.456Z,1.70
2022-07-29T20:24:22.962Z,1.92
2022-07-29T20:26:24.420Z,1.75
2022-07-29T20:28:26.050Z,1.70
2022-07-29T20:30:27.536Z,1.77
2022-07-29T20:32:30.211Z,1.40
2022-07-29T20:34:31.714Z,1.38
2022-07-29T20:36:33.276Z,1.58
2022-07-29T20:38:34.831Z,1.60
2022-07-29T20:40:37.334Z,1.50
2022-07-29T20:42:38.876Z,1.50
2022-07-29T20:44:40.453Z,1.58
2022-07-29T20:46:42.216Z,1.45
2022-07-29T20:48:43.899Z,1.70
2022-07-29T20:50:47.478Z,1.80
2022-07-29T20:52:50.948Z,1.65
2022-07-29T20:54:52.635Z,1.83
2022-07-29T20:56:54.138Z,1.70
2022-07-29T20:58:55.670Z,1.65
2022-07-29T21:00:57.217Z,1.85
2022-07-29T21:02:58.845Z,1.40
2022-07-29T21:05:00.910Z,1.90
2022-07-29T21:07:03.875Z,1.50
2022-07-29T21:09:05.384Z,2.17
2022-07-29T21:11:07.098Z,1.50
2022-07-29T21:13:08.684Z,1.52
2022-07-29T21:15:13.396Z,2.20
2022-07-29T21:17:16.270Z,1.48
2022-07-29T21:19:17.874Z,1.83
2022-07-29T21:21:19.904Z,1.85
2022-07-29T21:23:21.461Z,1.90
2022-07-29T21:25:23.611Z,1.77
2022-07-29T21:27:43.561Z,1.80
2022-07-29T21:29:45.054Z,1.80
2022-07-29T21:31:46.552Z,2.17
2022-07-29T21:33:48.072Z,1.58
2022-07-29T21:38:11.250Z,1.50
2022-07-29T21:40:13.192Z,1.73
2022-07-29T21:42:14.705Z,1.30
2022-07-29T21:44:16.221Z,1.35
2022-07-29T21:46:18.115Z,1.63
2022-07-29T21:48:20.754Z,2.22
2022-07-29T21:50:22.297Z,1.70
2022-07-29T21:52:23.899Z,1.50
2022-07-29T21:54:25.534Z,1.42
2022-07-29T21:56:29.711Z,2.10
2022-07-29T21:58:33.074Z,1.80
2022-07-29T22:00:35.300Z,1.42
2022-07-29T22:02:36.836Z,1.90
2022-07-29T22:04:39.046Z,1.90
2022-07-29T22:06:40.652Z,2.00
2022-07-29T22:08:45.462Z,2.40
2022-07-29T22:10:46.954Z,1.70
2022-07-29T22:12:52.509Z,1.65
2022-07-29T22:14:54.091Z,1.70
2022-07-29T22:16:57.999Z,1.95
2022-07-29T22:18:59.901Z,1.83
2022-07-29T22:21:01.586Z,1.95
2022-07-29T22:23:03.069Z,1.40
2022-07-29T22:25:05.760Z,1.85
2022-07-29T22:27:07.242Z,1.65
2022-07-29T22:29:08.741Z,2.00
2022-07-29T22:31:10.431Z,1.60
2022-07-29T22:33:17.620Z,1.80
2022-07-29T22:35:19.590Z,1.55
2022-07-29T22:37:21.083Z,1.38
2022-07-29T22:39:22.593Z,1.55
2022-07-29T22:41:24.085Z,1.63
2022-07-29T22:43:25.597Z,1.48
2022-07-29T22:45:27.141Z,1.65
2022-07-29T22:47:45.760Z,1.80
2022-07-29T22:49:48.475Z,1.40
2022-07-29T22:51:50.032Z,2.03
2022-07-29T22:53:51.912Z,1.55
2022-07-29T22:55:53.404Z,1.48
2022-07-29T22:57:54.954Z,1.50
2022-07-29T22:59:56.424Z,1.60
2022-07-29T23:01:57.960Z,1.52
2022-07-29T23:03:59.760Z,1.77
2022-07-29T23:06:01.361Z,1.90
2022-07-29T23:08:02.953Z,1.70
2022-07-29T23:10:05.010Z,1.98
2022-07-29T23:12:06.952Z,1.88
2022-07-29T23:14:09.626Z,1.70
2022-07-29T23:16:11.266Z,2.03
2022-07-29T23:18:12.972Z,1.23
2022-07-29T23:20:15.001Z,1.85
2022-07-29T23:22:16.630Z,1.55
2022-07-29T23:24:20.128Z,2.10
2022-07-29T23:26:21.619Z,1.58
2022-07-29T23:28:23.139Z,1.70
2022-07-29T23:30:24.798Z,1.55
2022-07-29T23:32:26.324Z,2.08
2022-07-29T23:34:27.847Z,2.10
2022-07-29T23:36:29.585Z,1.63
2022-07-29T23:38:31.157Z,1.80
2022-07-29T23:40:32.978Z,2.95
2022-07-29T23:42:34.472Z,2.30
2022-07-29T23:44:36.067Z,1.95
2022-07-29T23:46:37.651Z,1.70
2022-07-29T23:48:39.183Z,1.85
2022-07-29T23:50:40.710Z,2.28
2022-07-29T23:52:43.463Z,1.65
2022-07-29T23:54:44.960Z,1.60
2022-07-29T23:56:46.589Z,1.92
2022-07-29T23:58:48.100Z,1.80
